Time;durP1;ratioP1;P1;durP2;ratioP2;P2;SDS_P1;SDS_P2;PMS_P1;PMS_P2;Temp;Humidity;BMP_temperature;BMP_pressure;BME280_temperature;BME280_humidity;BME280_pressure;Samples;Min_cycle;Max_cycle;Signal;HPM_P1;HPM_P2
2022/11/19 00:01:18;;;;;;;30.02;15.68;;;;;;;5.77;100.00;100897.72;5001377;28;20062;-66
2022/11/19 00:03:44;;;;;;;29.83;15.40;;;;;;;5.77;100.00;100895.09;5011180;28;20079;-67
2022/11/19 00:06:12;;;;;;;31.40;17.10;;;;;;;5.76;100.00;100900.34;5010244;28;20473;-68
2022/11/19 00:08:39;;;;;;;33.03;17.13;;;;;;;5.69;100.00;100899.56;5010367;28;20057;-67
2022/11/19 00:11:07;;;;;;;32.00;16.55;;;;;;;5.79;100.00;100901.19;4991950;28;20076;-66
2022/11/19 00:13:33;;;;;;;33.63;16.88;;;;;;;5.68;100.00;100897.81;5009764;28;20045;-65
2022/11/19 00:16:06;;;;;;;32.42;17.58;;;;;;;5.61;100.00;100897.06;5009435;28;20096;-64
2022/11/19 00:18:31;;;;;;;33.40;16.48;;;;;;;5.58;100.00;100907.53;5009586;28;20058;-65
2022/11/19 00:21:10;;;;;;;31.23;17.23;;;;;;;5.65;100.00;100903.09;5001476;28;20077;-68
2022/11/19 00:23:36;;;;;;;33.70;17.08;;;;;;;5.50;100.00;100904.13;4990248;28;20041;-64
2022/11/19 00:26:10;;;;;;;37.90;18.10;;;;;;;5.60;100.00;100915.38;4989052;28;20027;-66
2022/11/19 00:28:36;;;;;;;32.90;17.48;;;;;;;5.57;100.00;100904.03;4990327;28;20596;-67
2022/11/19 00:31:07;;;;;;;35.75;17.48;;;;;;;5.49;100.00;100905.03;4989904;28;20034;-67
2022/11/19 00:33:33;;;;;;;33.78;18.08;;;;;;;5.54;100.00;100903.25;4989890;28;20560;-65
2022/11/19 00:35:59;;;;;;;34.20;17.38;;;;;;;5.53;100.00;100917.16;4989504;28;20037;-66
2022/11/19 00:38:24;;;;;;;32.25;16.50;;;;;;;5.64;100.00;100915.31;4989643;28;20346;-66
2022/11/19 00:40:50;;;;;;;33.50;18.30;;;;;;;5.62;100.00;100919.69;4989908;28;20022;-65
2022/11/19 00:45:59;;;;;;;31.65;18.10;;;;;;;5.64;100.00;100927.50;4989942;28;20077;-67
2022/11/19 00:48:24;;;;;;;34.67;18.48;;;;;;;5.51;100.00;100932.88;4988077;28;20076;-67
2022/11/19 00:50:50;;;;;;;39.35;19.40;;;;;;;5.42;100.00;100933.00;4989587;28;20030;-66
2022/11/19 00:53:15;;;;;;;40.80;19.25;;;;;;;5.42;100.00;100933.00;4989091;28;20026;-67
2022/11/19 00:55:40;;;;;;;36.10;18.80;;;;;;;5.54;100.00;100934.59;4990219;28;20038;-66
2022/11/19 00:58:06;;;;;;;37.20;17.77;;;;;;;5.58;100.00;100938.91;4989017;28;20023;-65
2022/11/19 01:00:31;;;;;;;35.70;18.27;;;;;;;5.49;100.00;100941.63;4988994;28;20034;-66
2022/11/19 01:02:57;;;;;;;35.25;17.73;;;;;;;5.46;100.00;100942.53;4989625;28;20133;-66
2022/11/19 01:05:22;;;;;;;44.03;19.98;;;;;;;5.49;100.00;100942.50;4987893;28;20453;-69
2022/11/19 01:07:47;;;;;;;39.72;19.65;;;;;;;5.42;100.00;100951.28;4989357;28;20058;-65
2022/11/19 01:10:13;;;;;;;38.80;18.80;;;;;;;5.43;100.00;100953.00;4988591;28;20077;-66
2022/11/19 01:13:33;;;;;;;37.65;18.40;;;;;;;5.36;100.00;100953.97;4988416;28;20117;-66
2022/11/19 01:15:23;;;;;;;37.72;19.15;;;;;;;5.28;100.00;100957.53;4989019;28;20034;-67
2022/11/19 01:17:48;;;;;;;43.90;19.67;;;;;;;5.19;100.00;100957.59;4987676;28;20026;-65
2022/11/19 01:20:14;;;;;;;38.67;18.83;;;;;;;5.31;100.00;100956.63;4989751;28;20053;-65
2022/11/19 01:22:39;;;;;;;40.63;20.58;;;;;;;5.23;100.00;100963.66;4987654;28;20026;-66
2022/11/19 01:25:05;;;;;;;44.67;20.92;;;;;;;5.15;100.00;100961.97;4989165;28;20029;-68
2022/11/19 01:27:30;;;;;;;40.53;18.42;;;;;;;5.22;100.00;100960.19;4987662;28;20054;-66
2022/11/19 01:29:55;;;;;;;38.53;19.85;;;;;;;5.06;100.00;100964.69;4987773;28;20026;-68
2022/11/19 01:32:21;;;;;;;42.35;20.45;;;;;;;4.98;100.00;100969.97;4988507;28;20039;-64
2022/11/19 01:34:46;;;;;;;37.58;17.70;;;;;;;5.06;100.00;100976.00;4987724;28;20025;-65
2022/11/19 01:37:11;;;;;;;38.90;19.08;;;;;;;5.01;100.00;100977.78;4988999;28;20032;-66
2022/11/19 01:39:37;;;;;;;32.92;19.58;;;;;;;5.01;100.00;100969.97;4988272;28;20030;-66
2022/11/19 01:42:02;;;;;;;33.85;18.92;;;;;;;4.93;100.00;100979.56;4987779;28;20113;-67
2022/11/19 01:44:56;;;;;;;36.45;18.67;;;;;;;4.91;100.00;100989.19;4988420;28;20038;-67
2022/11/19 01:47:21;;;;;;;33.10;17.50;;;;;;;4.90;100.00;100984.81;4987093;28;20489;-66
2022/11/19 01:49:47;;;;;;;37.28;18.65;;;;;;;5.00;100.00;100990.84;4987412;28;20029;-66
2022/11/19 01:52:12;;;;;;;37.25;18.58;;;;;;;5.02;100.00;100976.91;4986985;28;20045;-67
2022/11/19 01:54:44;;;;;;;34.92;17.48;;;;;;;5.14;100.00;100982.88;4988118;28;20065;-65
2022/11/19 01:57:12;;;;;;;31.52;17.40;;;;;;;4.98;100.00;100980.44;4986984;28;20022;-70
2022/11/19 01:59:38;;;;;;;36.58;18.75;;;;;;;4.96;100.00;100984.78;4987042;28;20106;-66
2022/11/19 02:02:03;;;;;;;38.72;18.63;;;;;;;4.99;100.00;100982.16;5002092;28;20124;-65
2022/11/19 02:04:29;;;;;;;34.17;18.45;;;;;;;4.98;100.00;100992.59;5007478;28;20050;-66
2022/11/19 02:06:54;;;;;;;40.60;18.77;;;;;;;4.92;100.00;100991.78;5080576;22;20071;-66
2022/11/19 02:09:20;;;;;;;36.95;18.83;;;;;;;4.98;100.00;100996.09;4986599;28;20115;-64
2022/11/19 02:12:16;;;;;;;38.67;18.52;;;;;;;4.97;100.00;100996.09;4986796;28;20108;-65
2022/11/19 02:15:08;;;;;;;43.70;18.50;;;;;;;4.92;100.00;100996.13;4988768;28;20105;-65
2022/11/19 02:17:58;;;;;;;38.08;19.15;;;;;;;4.97;100.00;100998.72;4989168;28;20026;-65
2022/11/19 02:20:35;;;;;;;37.35;18.55;;;;;;;4.98;100.00;100998.69;5007413;28;20025;-64
2022/11/19 02:23:16;;;;;;;41.47;19.08;;;;;;;5.06;100.00;101003.88;5007019;28;20034;-65
2022/11/19 02:25:50;;;;;;;39.83;19.02;;;;;;;5.10;100.00;100992.50;5006335;28;20033;-65
2022/11/19 02:28:25;;;;;;;34.08;17.63;;;;;;;4.98;100.00;101006.53;5007619;28;20164;-64
2022/11/19 02:30:53;;;;;;;38.85;18.90;;;;;;;4.86;100.00;101011.84;4992494;28;20019;-63
2022/11/19 02:33:26;;;;;;;40.17;19.17;;;;;;;4.82;100.00;101003.19;4986272;28;20444;-64
2022/11/19 02:36:04;;;;;;;38.80;18.90;;;;;;;4.99;100.00;101013.50;4986090;28;20048;-64
2022/11/19 02:38:40;;;;;;;38.72;18.42;;;;;;;4.88;100.00;101017.94;4986914;28;20034;-63
2022/11/19 02:41:35;;;;;;;38.45;18.55;;;;;;;4.84;100.00;101024.06;4988713;28;20114;-64
2022/11/19 02:46:59;;;;;;;45.55;19.27;;;;;;;4.88;100.00;101021.41;4991386;28;20055;-64
2022/11/19 02:49:26;;;;;;;36.88;19.23;;;;;;;4.87;100.00;101026.63;4990040;28;20030;-63
2022/11/19 02:51:52;;;;;;;43.80;19.88;;;;;;;4.87;100.00;101027.50;4989813;28;20029;-63
2022/11/19 02:54:17;;;;;;;36.05;19.00;;;;;;;4.73;100.00;101026.75;4991270;28;20376;-64
2022/11/19 02:56:50;;;;;;;40.45;18.20;;;;;;;4.77;100.00;101034.53;4990980;28;20026;-64
2022/11/19 03:04:49;;;;;;;35.25;18.60;;;;;;;4.71;100.00;101039.78;4991538;28;20404;-63
2022/11/19 03:07:17;;;;;;;33.05;17.77;;;;;;;4.73;100.00;101034.56;4991465;28;20046;-64
2022/11/19 03:09:47;;;;;;;33.55;18.75;;;;;;;4.68;100.00;101039.81;4989309;28;20043;-63
2022/11/19 03:12:22;;;;;;;37.65;18.83;;;;;;;4.64;100.00;101036.34;4989406;28;20038;-64
2022/11/19 03:18:02;;;;;;;33.80;19.02;;;;;;;4.57;100.00;101045.09;4990981;28;20080;-65
2022/11/19 03:20:39;;;;;;;42.50;18.40;;;;;;;4.60;100.00;101047.69;4989624;28;20080;-64
2022/11/19 03:23:12;;;;;;;36.55;18.35;;;;;;;4.55;100.00;101047.69;4991229;28;20034;-64
2022/11/19 03:25:44;;;;;;;29.80;18.20;;;;;;;4.60;100.00;101049.44;4988782;28;20035;-64
2022/11/19 03:28:13;;;;;;;36.25;18.02;;;;;;;4.40;100.00;101048.66;4972564;28;20026;-64
2022/11/19 03:30:41;;;;;;;32.38;19.08;;;;;;;4.37;100.00;101051.25;4990974;28;20034;-64
2022/11/19 03:33:10;;;;;;;34.17;19.05;;;;;;;4.29;100.00;101048.72;4989398;28;20041;-64
2022/11/19 03:35:39;;;;;;;35.92;20.83;;;;;;;4.24;100.00;101044.41;4989118;28;20037;-64
2022/11/19 03:38:07;;;;;;;35.22;19.63;;;;;;;4.23;100.00;101053.97;4989808;28;20027;-65
2022/11/19 03:40:34;;;;;;;29.10;18.05;;;;;;;4.28;100.00;101056.56;4990239;28;20543;-64
2022/11/19 03:43:02;;;;;;;35.22;19.15;;;;;;;4.30;100.00;101046.97;4989736;28;20519;-65
2022/11/19 03:45:31;;;;;;;30.83;19.05;;;;;;;4.26;100.00;101051.34;4989650;28;20046;-64
2022/11/19 03:47:58;;;;;;;29.65;18.77;;;;;;;4.32;100.00;101053.03;4989551;28;20029;-64
2022/11/19 03:50:37;;;;;;;31.13;18.60;;;;;;;4.31;100.00;101059.16;4989148;28;20094;-64
2022/11/19 03:53:02;;;;;;;34.55;19.77;;;;;;;4.27;100.00;101065.22;4991711;28;20496;-64
2022/11/19 03:55:39;;;;;;;31.58;19.55;;;;;;;4.31;100.00;101061.75;4990410;28;20058;-63
2022/11/19 03:58:06;;;;;;;34.55;19.73;;;;;;;4.30;100.00;101066.09;4993312;28;20023;-63
2022/11/19 04:00:32;;;;;;;35.40;21.23;;;;;;;4.18;100.00;101073.97;4989383;28;20038;-64
2022/11/19 04:02:58;;;;;;;33.65;20.48;;;;;;;4.21;100.00;101070.50;4989507;28;20026;-65
2022/11/19 04:05:23;;;;;;;35.08;21.35;;;;;;;4.22;100.00;101069.63;4990788;28;20482;-65
2022/11/19 04:07:48;;;;;;;35.20;20.85;;;;;;;4.08;100.00;101082.69;5009476;28;20037;-65
2022/11/19 04:10:14;;;;;;;35.78;21.40;;;;;;;4.16;100.00;101086.16;5008268;28;20026;-65
2022/11/19 04:12:39;;;;;;;34.50;21.73;;;;;;;4.13;100.00;101083.56;5008931;28;20060;-65
2022/11/19 04:15:05;;;;;;;37.25;20.60;;;;;;;3.99;100.00;101089.69;5009492;28;20026;-65
2022/11/19 04:17:31;;;;;;;41.83;22.92;;;;;;;4.17;100.00;101098.31;5008514;28;20025;-65
2022/11/19 04:19:56;;;;;;;37.50;21.88;;;;;;;4.07;100.00;101099.22;5009170;28;20037;-64
2022/11/19 04:22:21;;;;;;;35.80;21.25;;;;;;;4.20;100.00;101100.91;5009072;28;20034;-67
2022/11/19 04:24:47;;;;;;;34.90;22.00;;;;;;;4.16;100.00;101107.03;5009328;28;20068;-64
2022/11/19 04:27:12;;;;;;;36.75;21.15;;;;;;;4.06;100.00;101107.91;5008714;28;20034;-65
2022/11/19 04:29:37;;;;;;;38.53;21.48;;;;;;;4.12;100.00;101113.13;5009494;28;20057;-65
2022/11/19 04:32:03;;;;;;;38.95;21.67;;;;;;;4.11;100.00;101112.25;5009332;28;20048;-67
2022/11/19 04:34:28;;;;;;;39.35;22.02;;;;;;;4.11;100.00;101112.25;5007772;28;20046;-66
2022/11/19 04:36:54;;;;;;;39.30;22.33;;;;;;;4.18;100.00;101113.09;5009190;28;20024;-67
2022/11/19 04:39:19;;;;;;;39.20;23.13;;;;;;;3.96;100.00;101113.16;5009160;28;20081;-65
2022/11/19 04:41:44;;;;;;;37.90;22.80;;;;;;;4.11;100.00;101122.69;5008591;28;20186;-66
2022/11/19 04:44:10;;;;;;;37.88;22.65;;;;;;;3.87;100.00;101121.84;5007680;28;20057;-66
2022/11/19 04:46:35;;;;;;;39.10;24.73;;;;;;;3.78;100.00;101125.34;4998568;28;20031;-66
2022/11/19 04:49:00;;;;;;;38.10;23.17;;;;;;;3.75;100.00;101140.09;4988879;28;20161;-63
2022/11/19 04:51:26;;;;;;;44.05;25.17;;;;;;;3.71;100.00;101147.06;4989010;28;20029;-66
2022/11/19 04:53:51;;;;;;;43.53;25.23;;;;;;;3.70;100.00;101153.13;4989369;28;20034;-67
2022/11/19 04:56:16;;;;;;;40.20;24.40;;;;;;;3.73;100.00;101147.94;4989263;28;20028;-66
2022/11/19 04:58:42;;;;;;;48.10;25.85;;;;;;;3.57;100.00;101146.19;4989449;28;20572;-67
2022/11/19 05:01:07;;;;;;;42.75;25.77;;;;;;;3.58;100.00;101150.56;4988294;28;20599;-63
2022/11/19 05:03:33;;;;;;;46.85;26.23;;;;;;;3.44;100.00;101141.00;4988652;28;20149;-69
2022/11/19 05:05:58;;;;;;;38.72;23.95;;;;;;;3.64;100.00;101138.38;4987294;28;20496;-64
2022/11/19 05:08:24;;;;;;;46.22;25.83;;;;;;;3.49;100.00;101147.06;4986582;28;20073;-66
2022/11/19 05:10:49;;;;;;;46.35;26.65;;;;;;;3.43;100.00;101156.63;4987176;28;20081;-63
2022/11/19 05:13:14;;;;;;;42.95;25.50;;;;;;;3.53;100.00;101151.41;4988981;28;20473;-66
2022/11/19 05:15:40;;;;;;;47.05;26.40;;;;;;;3.54;100.00;101158.38;4988482;28;20400;-66
2022/11/19 05:18:05;;;;;;;41.92;26.13;;;;;;;3.60;100.00;101162.69;4987473;28;20481;-66
2022/11/19 05:20:30;;;;;;;41.70;25.33;;;;;;;3.57;100.00;101159.22;4988691;28;20128;-65
2022/11/19 05:22:56;;;;;;;42.20;25.27;;;;;;;3.57;100.00;101156.59;4987790;28;20034;-70
2022/11/19 05:25:21;;;;;;;44.00;24.08;;;;;;;3.30;100.00;101161.81;4988115;28;20110;-68
2022/11/19 05:27:46;;;;;;;39.72;24.38;;;;;;;3.31;100.00;101160.94;4989130;28;20165;-65
2022/11/19 05:30:12;;;;;;;38.90;24.10;;;;;;;3.43;100.00;101160.06;4988227;28;20025;-68
2022/11/19 05:32:37;;;;;;;38.47;24.33;;;;;;;3.32;100.00;101169.63;4988725;28;20030;-68
2022/11/19 05:35:04;;;;;;;37.88;23.83;;;;;;;3.25;100.00;101171.34;4988827;28;20027;-65
2022/11/19 05:37:29;;;;;;;39.08;24.13;;;;;;;3.13;100.00;101175.66;4987243;28;20109;-66
2022/11/19 05:39:55;;;;;;;39.67;23.88;;;;;;;3.14;100.00;101185.22;4988397;28;20184;-66
2022/11/19 05:42:20;;;;;;;34.92;22.80;;;;;;;3.27;100.00;101186.13;4988556;28;20022;-64
2022/11/19 05:44:45;;;;;;;37.58;23.58;;;;;;;3.07;100.00;101186.03;4988714;28;20369;-66
2022/11/19 05:47:11;;;;;;;33.65;22.52;;;;;;;2.96;100.00;101186.03;4988298;28;20563;-67
2022/11/19 05:49:36;;;;;;;34.85;22.17;;;;;;;3.07;100.00;101177.38;4987526;28;20031;-67
2022/11/19 05:52:01;;;;;;;36.95;23.73;;;;;;;2.90;100.00;101180.81;4987802;28;20022;-64
2022/11/19 05:54:27;;;;;;;36.50;23.17;;;;;;;3.04;100.00;101183.44;4990688;28;20045;-66
2022/11/19 05:56:52;;;;;;;36.95;22.35;;;;;;;2.97;100.00;101187.75;4971159;28;20472;-67
2022/11/19 05:59:18;;;;;;;36.17;23.05;;;;;;;3.00;100.00;101189.50;4987707;28;20539;-63
2022/11/19 06:01:44;;;;;;;37.72;23.40;;;;;;;3.06;100.00;101193.84;5000634;28;20030;-67
2022/11/19 06:04:10;;;;;;;37.22;22.92;;;;;;;3.13;100.00;101193.88;5006439;28;20034;-66
2022/11/19 06:06:35;;;;;;;36.65;22.63;;;;;;;3.17;100.00;101192.16;5006906;28;20468;-65
2022/11/19 06:09:00;;;;;;;35.33;21.23;;;;;;;3.01;100.00;101194.72;5007198;28;20049;-68
2022/11/19 06:14:09;;;;;;;34.63;21.45;;;;;;;3.01;100.00;101212.09;5011817;28;20631;-68
2022/11/19 06:16:35;;;;;;;38.20;23.42;;;;;;;3.00;100.00;101212.94;5011705;28;20018;-67
2022/11/19 06:19:00;;;;;;;35.88;21.88;;;;;;;2.89;100.00;101220.72;4997580;28;20026;-66
2022/11/19 06:21:25;;;;;;;33.88;21.40;;;;;;;3.01;100.00;101219.91;4991396;28;20022;-67
2022/11/19 06:23:51;;;;;;;36.22;22.20;;;;;;;3.03;100.00;101219.03;4991418;28;20129;-68
2022/11/19 06:26:23;;;;;;;33.97;22.23;;;;;;;3.05;100.00;101228.56;4991301;28;20022;-67
2022/11/19 06:28:48;;;;;;;36.00;22.73;;;;;;;3.00;100.00;101229.44;4992316;28;20486;-66
2022/11/19 06:31:13;;;;;;;32.95;21.98;;;;;;;2.94;100.00;101228.53;4992325;28;20054;-63
2022/11/19 06:33:39;;;;;;;36.63;21.67;;;;;;;2.86;100.00;101229.38;4992109;28;20105;-66
2022/11/19 06:36:04;;;;;;;35.33;21.73;;;;;;;2.92;100.00;101236.31;4991750;28;20354;-68
2022/11/19 06:38:30;;;;;;;36.58;22.55;;;;;;;2.85;100.00;101234.56;4992054;28;20022;-67
2022/11/19 06:40:55;;;;;;;34.97;22.67;;;;;;;2.80;100.00;101236.28;4991107;28;20023;-62
2022/11/19 06:43:20;;;;;;;37.90;22.20;;;;;;;2.87;100.00;101238.06;4991527;28;20102;-66
2022/11/19 06:45:46;;;;;;;34.78;21.67;;;;;;;2.86;100.00;101244.13;4991948;28;20065;-69
2022/11/19 06:48:11;;;;;;;34.63;21.65;;;;;;;2.83;100.00;101247.56;4991082;28;20030;-65
2022/11/19 06:50:37;;;;;;;36.95;21.80;;;;;;;2.79;100.00;101258.84;5007291;28;20045;-67
2022/11/19 06:53:02;;;;;;;35.40;21.67;;;;;;;2.93;100.00;101263.25;5010793;28;20037;-67
2022/11/19 06:55:27;;;;;;;38.42;21.00;;;;;;;2.99;100.00;101258.94;5010336;28;20105;-69
2022/11/19 06:57:53;;;;;;;35.22;21.73;;;;;;;2.74;100.00;101256.19;5011073;28;20060;-69
2022/11/19 07:00:18;;;;;;;35.88;21.90;;;;;;;2.77;100.00;101253.63;5005767;28;20058;-68
2022/11/19 07:02:43;;;;;;;39.42;23.10;;;;;;;2.66;100.00;101265.72;4991849;28;20081;-66
2022/11/19 07:05:09;;;;;;;38.42;22.25;;;;;;;2.72;100.00;101259.66;4991716;28;20031;-68
2022/11/19 07:07:34;;;;;;;37.50;21.45;;;;;;;2.89;100.00;101267.56;4991586;28;20469;-69
2022/11/19 07:09:59;;;;;;;40.17;22.17;;;;;;;2.74;100.00;101279.63;4998199;28;20484;-66
2022/11/19 07:12:25;;;;;;;37.03;22.42;;;;;;;2.64;100.00;101275.22;5000317;28;20029;-67
2022/11/19 07:14:50;;;;;;;38.22;22.48;;;;;;;2.55;100.00;101278.66;4990523;28;20803;-68
2022/11/19 07:17:15;;;;;;;37.40;22.10;;;;;;;2.53;100.00;101278.63;4991677;28;20141;-67
2022/11/19 07:19:41;;;;;;;41.28;21.98;;;;;;;2.47;100.00;101281.19;4991026;28;20097;-70
2022/11/19 07:22:06;;;;;;;32.88;20.70;;;;;;;2.67;100.00;101282.19;4990867;28;20054;-66
2022/11/19 07:24:31;;;;;;;35.10;21.45;;;;;;;2.73;100.00;101293.50;4990138;28;20804;-68
2022/11/19 07:26:57;;;;;;;35.95;21.70;;;;;;;2.62;100.00;101287.38;4990022;28;20053;-69
2022/11/19 07:29:22;;;;;;;37.40;21.30;;;;;;;2.49;100.00;101295.09;4995997;28;20022;-68
2022/11/19 07:31:49;;;;;;;38.58;22.77;;;;;;;2.56;100.00;101297.75;4997052;28;20030;-67
2022/11/19 07:34:15;;;;;;;37.88;21.02;;;;;;;2.59;100.00;101295.16;4990445;28;20029;-64
2022/11/19 07:36:40;;;;;;;37.60;21.58;;;;;;;2.45;100.00;101306.34;4991187;28;20019;-64
2022/11/19 07:39:06;;;;;;;35.10;20.95;;;;;;;2.61;100.00;101298.63;4990842;28;20473;-69
2022/11/19 07:44:15;;;;;;;35.35;21.90;;;;;;;2.67;100.00;101311.69;4991160;28;20468;-69
2022/11/19 07:46:41;;;;;;;34.17;21.30;;;;;;;2.62;100.00;101316.84;4990630;28;20034;-69
2022/11/19 07:49:06;;;;;;;36.65;21.15;;;;;;;2.66;100.00;101317.75;4990795;28;20422;-69
2022/11/19 07:51:31;;;;;;;33.58;19.88;;;;;;;2.56;100.00;101314.19;4990683;28;20033;-70
2022/11/19 07:53:56;;;;;;;34.15;20.50;;;;;;;2.59;100.00;101315.97;4990903;28;20033;-67
2022/11/19 07:56:22;;;;;;;32.83;20.30;;;;;;;2.68;100.00;101326.41;4986989;28;20035;-69
2022/11/19 07:58:48;;;;;;;34.85;21.55;;;;;;;2.66;100.00;101328.16;4991252;28;20104;-64
2022/11/19 08:01:19;;;;;;;34.67;19.85;;;;;;;2.58;100.00;101325.50;5001897;28;20393;-68
2022/11/19 08:03:45;;;;;;;33.72;21.20;;;;;;;2.59;100.00;101332.44;4989718;28;20033;-67
2022/11/19 08:06:12;;;;;;;35.50;21.23;;;;;;;2.57;100.00;101338.50;4988573;28;20095;-66
2022/11/19 08:08:38;;;;;;;30.65;19.70;;;;;;;2.51;100.00;101339.31;4989513;28;20078;-68
2022/11/19 08:11:05;;;;;;;34.38;21.05;;;;;;;2.59;100.00;101342.00;4986754;28;20077;-62
2022/11/19 08:13:31;;;;;;;32.42;20.52;;;;;;;2.67;100.00;101336.84;4985256;28;20034;-70
2022/11/19 08:16:00;;;;;;;33.65;20.20;;;;;;;2.69;100.00;101342.91;4974939;28;20500;-67
2022/11/19 08:18:26;;;;;;;32.95;19.95;;;;;;;2.66;100.00;101343.78;4980273;28;20065;-68
2022/11/19 08:20:51;;;;;;;30.15;18.95;;;;;;;2.80;100.00;101343.84;4976357;28;20046;-66
2022/11/19 08:23:17;;;;;;;32.85;19.98;;;;;;;2.94;100.00;101351.75;4981469;28;20031;-69
2022/11/19 08:25:43;;;;;;;30.70;18.83;;;;;;;2.83;100.00;101349.06;4981271;28;20046;-71
2022/11/19 08:28:09;;;;;;;33.85;18.60;;;;;;;2.95;100.00;101350.03;4980269;28;20026;-64
2022/11/19 08:30:34;;;;;;;30.73;18.58;;;;;;;3.08;100.00;101357.06;4977550;28;20034;-69
2022/11/19 08:32:59;;;;;;;30.30;19.30;;;;;;;3.03;100.00;101356.16;4981934;28;20061;-70
2022/11/19 08:35:25;;;;;;;29.55;18.85;;;;;;;2.88;100.00;101365.63;4980699;28;20058;-68
2022/11/19 08:37:50;;;;;;;30.88;19.15;;;;;;;2.90;100.00;101352.59;4983996;28;20266;-67
2022/11/19 08:40:16;;;;;;;29.85;19.13;;;;;;;2.89;100.00;101358.69;4988086;28;20022;-69
2022/11/19 08:42:59;;;;;;;30.52;19.23;;;;;;;2.78;100.00;101362.09;4984899;28;20030;-69
2022/11/19 08:45:37;;;;;;;32.70;19.00;;;;;;;2.85;100.00;101364.72;4987462;28;20022;-68
2022/11/19 08:48:05;;;;;;;29.55;19.02;;;;;;;2.69;100.00;101359.41;4986061;28;20116;-68
2022/11/19 08:50:31;;;;;;;30.08;18.60;;;;;;;2.83;100.00;101366.44;4985724;28;20170;-63
2022/11/19 08:53:01;;;;;;;33.03;18.30;;;;;;;2.95;100.00;101366.50;4986336;28;20109;-65
2022/11/19 08:55:28;;;;;;;28.25;17.35;;;;;;;2.99;100.00;101373.50;4987302;28;20101;-66
2022/11/19 08:58:00;;;;;;;28.45;18.08;;;;;;;2.99;100.00;101375.22;4986528;28;20668;-68
2022/11/19 09:00:25;;;;;;;30.77;18.98;;;;;;;2.94;100.00;101385.59;4987602;28;20210;-66
2022/11/19 09:02:50;;;;;;;27.30;17.25;;;;;;;2.97;100.00;101393.44;4991676;28;20629;-68
2022/11/19 09:05:16;;;;;;;26.65;17.48;;;;;;;3.09;100.00;101390.03;4986391;28;20030;-67
2022/11/19 09:07:41;;;;;;;26.85;16.15;;;;;;;3.09;100.00;101396.97;4980198;28;20046;-64
2022/11/19 09:10:07;;;;;;;28.38;17.38;;;;;;;3.15;100.00;101397.00;4982716;28;20050;-68
2022/11/19 09:12:33;;;;;;;26.83;15.98;;;;;;;3.25;100.00;101395.34;4987990;28;20017;-70
2022/11/19 09:14:58;;;;;;;25.15;16.63;;;;;;;3.09;100.00;101389.16;4987061;28;20030;-62
2022/11/19 09:17:23;;;;;;;23.65;16.13;;;;;;;3.02;100.00;101389.16;4989394;28;20037;-67
2022/11/19 09:19:49;;;;;;;25.00;16.20;;;;;;;3.29;100.00;101387.53;4988019;28;20054;-69
2022/11/19 09:22:14;;;;;;;25.98;16.25;;;;;;;3.16;100.00;101396.16;4989281;28;20097;-67
2022/11/19 09:24:39;;;;;;;26.85;16.20;;;;;;;3.43;100.00;101404.97;4987817;28;20428;-68
2022/11/19 09:27:05;;;;;;;27.25;16.92;;;;;;;3.26;100.00;101397.97;4988385;28;20026;-63
2022/11/19 09:29:30;;;;;;;32.10;16.25;;;;;;;3.22;100.00;101406.59;4987993;28;20068;-68
2022/11/19 09:31:56;;;;;;;42.65;18.15;;;;;;;3.02;100.00;101419.50;4988033;28;20030;-65
2022/11/19 09:34:21;;;;;;;37.80;18.55;;;;;;;2.88;100.00;101416.78;4989094;28;20026;-72
2022/11/19 09:36:46;;;;;;;37.47;18.02;;;;;;;2.67;100.00;101418.38;4989197;28;20641;-67
2022/11/19 09:39:12;;;;;;;35.08;17.65;;;;;;;2.71;100.00;101412.31;4988305;28;20109;-68
2022/11/19 09:41:53;;;;;;;32.45;18.42;;;;;;;2.50;100.00;101418.25;4988685;28;20057;-70
2022/11/19 09:44:24;;;;;;;27.83;17.88;;;;;;;2.62;100.00;101425.28;4988165;28;20129;-68
2022/11/19 09:46:55;;;;;;;27.02;17.40;;;;;;;2.60;100.00;101429.59;4986308;28;20030;-65
2022/11/19 09:49:26;;;;;;;24.40;16.73;;;;;;;2.66;100.00;101427.03;4987741;28;20473;-69
2022/11/19 09:51:58;;;;;;;26.33;17.25;;;;;;;2.81;100.00;101435.84;4986381;28;20046;-72
2022/11/19 09:54:24;;;;;;;25.85;17.52;;;;;;;2.56;100.00;101451.25;4987196;28;20032;-67
2022/11/19 09:56:53;;;;;;;27.45;16.70;;;;;;;2.52;100.00;101443.41;4985813;28;20473;-69
2022/11/19 09:59:25;;;;;;;29.95;18.20;;;;;;;2.69;100.00;101442.69;4986017;28;20050;-71
2022/11/19 10:01:51;;;;;;;24.52;15.55;;;;;;;2.84;100.00;101441.94;4985773;28;20458;-69
2022/11/19 10:04:22;;;;;;;27.35;16.90;;;;;;;2.86;100.00;101447.16;4987369;28;20025;-62
2022/11/19 10:07:05;;;;;;;26.95;16.10;;;;;;;2.84;100.00;101448.88;4975597;28;20030;-63
2022/11/19 10:09:35;;;;;;;27.35;16.20;;;;;;;2.83;100.00;101455.81;4984095;28;20037;-66
2022/11/19 10:12:07;;;;;;;26.73;15.68;;;;;;;2.98;100.00;101457.66;4986090;28;20032;-66
2022/11/19 10:14:57;;;;;;;25.05;15.73;;;;;;;2.95;100.00;101455.03;4984099;28;20057;-65
2022/11/19 10:17:41;;;;;;;27.67;17.40;;;;;;;2.76;100.00;101454.91;4978127;28;20564;-68
2022/11/19 10:20:15;;;;;;;32.88;17.15;;;;;;;2.52;100.00;101461.63;4978691;28;20093;-69
2022/11/19 10:22:55;;;;;;;45.53;22.20;;;;;;;2.52;100.00;101456.41;4983775;28;20521;-71
2022/11/19 10:25:45;;;;;;;42.22;20.95;;;;;;;2.64;100.00;101463.47;4985000;28;20038;-70
2022/11/19 10:28:17;;;;;;;32.15;18.73;;;;;;;2.71;100.00;101461.78;4995336;28;20105;-68
2022/11/19 10:30:49;;;;;;;28.35;18.13;;;;;;;2.68;100.00;101463.50;4979813;28;20077;-68
2022/11/19 10:33:20;;;;;;;24.98;16.00;;;;;;;2.81;100.00;101459.25;4976720;28;20481;-70
2022/11/19 10:35:52;;;;;;;28.63;17.70;;;;;;;2.75;100.00;101454.88;4978193;28;20034;-64
2022/11/19 10:38:26;;;;;;;26.23;16.30;;;;;;;2.70;100.00;101456.56;4986673;28;20109;-63
2022/11/19 10:40:57;;;;;;;27.17;16.00;;;;;;;2.88;100.00;101459.31;4985409;28;20062;-71
2022/11/19 10:43:47;;;;;;;25.10;15.77;;;;;;;2.74;100.00;101460.94;4969935;28;20550;-69
2022/11/19 10:46:14;;;;;;;23.23;15.50;;;;;;;2.87;100.00;101464.53;4977073;28;20027;-59
2022/11/19 10:48:49;;;;;;;25.65;15.75;;;;;;;2.73;100.00;101464.38;4986760;28;20448;-66
2022/11/19 10:51:23;;;;;;;26.95;17.23;;;;;;;2.80;100.00;101457.53;4987300;28;20041;-72
2022/11/19 10:53:50;;;;;;;25.92;16.95;;;;;;;2.99;100.00;101454.22;4987787;28;20063;-68
2022/11/19 10:56:21;;;;;;;27.73;16.50;;;;;;;2.92;100.00;101447.19;4985018;28;20126;-72
2022/11/19 10:58:50;;;;;;;25.15;16.50;;;;;;;2.93;100.00;101446.34;4984952;28;20033;-71
2022/11/19 11:01:37;;;;;;;26.38;15.27;;;;;;;3.12;100.00;101441.25;4989596;28;20042;-69
2022/11/19 11:04:27;;;;;;;24.08;16.10;;;;;;;2.93;100.00;101440.25;4989966;28;20034;-68
2022/11/19 11:07:01;;;;;;;24.30;15.52;;;;;;;3.33;100.00;101430.13;4989868;28;20037;-69
2022/11/19 11:09:33;;;;;;;21.17;14.07;;;;;;;3.46;100.00;101419.78;4990984;28;20592;-69
2022/11/19 11:15:26;;;;;;;23.85;14.88;;;;;;;3.56;99.49;101418.06;4991359;28;20779;-68
2022/11/19 11:18:02;;;;;;;27.83;15.35;;;;;;;3.61;98.71;101422.44;4989015;28;20071;-69
2022/11/19 11:20:28;;;;;;;20.63;14.02;;;;;;;3.57;98.03;101419.81;4989386;28;20027;-69
2022/11/19 11:23:09;;;;;;;21.17;14.05;;;;;;;3.57;98.94;101427.63;4989585;28;20027;-70
2022/11/19 11:25:35;;;;;;;22.35;14.90;;;;;;;3.52;98.68;101420.66;4985830;28;20060;-65
2022/11/19 11:28:09;;;;;;;23.98;15.50;;;;;;;3.54;99.30;101418.06;4989634;28;20030;-70
2022/11/19 11:30:35;;;;;;;22.27;14.80;;;;;;;3.51;100.00;101421.53;4989724;28;20037;-69
2022/11/19 11:33:26;;;;;;;29.15;17.15;;;;;;;3.57;100.00;101430.22;4989922;28;20022;-71
2022/11/19 11:35:54;;;;;;;24.60;15.30;;;;;;;3.63;99.13;101428.53;4990490;28;20046;-70
2022/11/19 11:38:22;;;;;;;26.45;14.68;;;;;;;3.66;99.36;101431.16;4991160;28;20026;-70